sensor_id;sensor_type;location;lat;lon;timestamp;pressure;altitude;pressure_sealevel;temperature;humidity
56070;BME280;41944;52.078;-0.058;2023-05-20T00:01:55;102612.97;;;9.72;98.10
56070;BME280;41944;52.078;-0.058;2023-05-20T00:04:22;102617.73;;;9.80;97.63
56070;BME280;41944;52.078;-0.058;2023-05-20T00:06:49;102611.23;;;9.60;98.85
56070;BME280;41944;52.078;-0.058;2023-05-20T00:09:16;102609.67;;;9.50;99.23
56070;BME280;41944;52.078;-0.058;2023-05-20T00:11:42;102603.35;;;9.39;100.00
56070;BME280;41944;52.078;-0.058;2023-05-20T00:14:09;102604.94;;;9.50;99.88
56070;BME280;41944;52.078;-0.058;2023-05-20T00:16:37;102602.53;;;9.20;100.00
56070;BME280;41944;52.078;-0.058;2023-05-20T00:19:04;102600.52;;;9.07;100.00
56070;BME280;41944;52.078;-0.058;2023-05-20T00:21:31;102601.85;;;9.11;100.00
56070;BME280;41944;52.078;-0.058;2023-05-20T00:23:58;102604.92;;;9.20;100.00
56070;BME280;41944;52.078;-0.058;2023-05-20T00:26:25;102600.54;;;9.21;100.00
56070;BME280;41944;52.078;-0.058;2023-05-20T00:28:52;102596.91;;;9.21;100.00
56070;BME280;41944;52.078;-0.058;2023-05-20T00:31:19;102598.02;;;9.12;100.00
56070;BME280;41944;52.078;-0.058;2023-05-20T00:33:46;102599.60;;;9.00;100.00
56070;BME280;41944;52.078;-0.058;2023-05-20T00:36:13;102598.14;;;9.02;100.00
56070;BME280;41944;52.078;-0.058;2023-05-20T00:38:39;102596.92;;;9.04;100.00
56070;BME280;41944;52.078;-0.058;2023-05-20T00:41:07;102592.19;;;9.03;100.00
56070;BME280;41944;52.078;-0.058;2023-05-20T00:43:34;102593.31;;;9.06;100.00
56070;BME280;41944;52.078;-0.058;2023-05-20T00:46:01;102591.83;;;8.94;100.00
56070;BME280;41944;52.078;-0.058;2023-05-20T00:48:35;102589.06;;;8.98;100.00
56070;BME280;41944;52.078;-0.058;2023-05-20T00:51:05;102589.07;;;8.82;100.00
56070;BME280;41944;52.078;-0.058;2023-05-20T00:53:33;102589.17;;;8.91;100.00
56070;BME280;41944;52.078;-0.058;2023-05-20T00:56:00;102593.02;;;9.00;100.00
56070;BME280;41944;52.078;-0.058;2023-05-20T00:58:27;102587.48;;;8.88;100.00
56070;BME280;41944;52.078;-0.058;2023-05-20T01:00:55;102587.89;;;8.80;100.00
56070;BME280;41944;52.078;-0.058;2023-05-20T01:03:22;102591.88;;;8.97;100.00
56070;BME280;41944;52.078;-0.058;2023-05-20T01:05:50;102592.33;;;8.69;100.00
56070;BME280;41944;52.078;-0.058;2023-05-20T01:08:16;102594.59;;;8.69;100.00
56070;BME280;41944;52.078;-0.058;2023-05-20T01:10:46;102591.32;;;8.58;100.00
56070;BME280;41944;52.078;-0.058;2023-05-20T01:13:19;102588.98;;;8.63;100.00
56070;BME280;41944;52.078;-0.058;2023-05-20T01:15:48;102585.16;;;8.51;100.00
56070;BME280;41944;52.078;-0.058;2023-05-20T01:18:16;102585.85;;;8.59;100.00
56070;BME280;41944;52.078;-0.058;2023-05-20T01:20:45;102584.97;;;8.49;100.00
56070;BME280;41944;52.078;-0.058;2023-05-20T01:23:15;102585.47;;;8.58;100.00
56070;BME280;41944;52.078;-0.058;2023-05-20T01:25:42;102580.93;;;8.54;100.00
56070;BME280;41944;52.078;-0.058;2023-05-20T01:28:10;102578.98;;;8.72;100.00
56070;BME280;41944;52.078;-0.058;2023-05-20T01:30:41;102575.96;;;8.70;100.00
56070;BME280;41944;52.078;-0.058;2023-05-20T01:33:11;102572.78;;;9.16;100.00
56070;BME280;41944;52.078;-0.058;2023-05-20T01:35:39;102573.73;;;9.22;100.00
56070;BME280;41944;52.078;-0.058;2023-05-20T01:38:07;102571.07;;;9.31;99.49
56070;BME280;41944;52.078;-0.058;2023-05-20T01:40:35;102570.47;;;9.26;98.63
56070;BME280;41944;52.078;-0.058;2023-05-20T01:43:02;102572.42;;;9.17;99.73
56070;BME280;41944;52.078;-0.058;2023-05-20T01:45:30;102570.69;;;9.24;99.97
56070;BME280;41944;52.078;-0.058;2023-05-20T01:47:57;102569.71;;;9.21;100.00
56070;BME280;41944;52.078;-0.058;2023-05-20T01:50:24;102570.58;;;9.05;100.00
56070;BME280;41944;52.078;-0.058;2023-05-20T01:52:52;102568.01;;;9.17;100.00
56070;BME280;41944;52.078;-0.058;2023-05-20T01:55:19;102566.95;;;9.20;100.00
56070;BME280;41944;52.078;-0.058;2023-05-20T01:57:46;102565.32;;;9.21;100.00
56070;BME280;41944;52.078;-0.058;2023-05-20T02:00:14;102561.54;;;9.19;100.00
56070;BME280;41944;52.078;-0.058;2023-05-20T02:02:41;102561.49;;;9.36;100.00
56070;BME280;41944;52.078;-0.058;2023-05-20T02:05:09;102558.16;;;9.23;100.00
56070;BME280;41944;52.078;-0.058;2023-05-20T02:07:36;102557.38;;;9.47;100.00
56070;BME280;41944;52.078;-0.058;2023-05-20T02:10:04;102555.68;;;9.28;100.00
56070;BME280;41944;52.078;-0.058;2023-05-20T02:12:31;102557.25;;;9.52;100.00
56070;BME280;41944;52.078;-0.058;2023-05-20T02:14:58;102554.76;;;9.51;100.00
56070;BME280;41944;52.078;-0.058;2023-05-20T02:17:25;102551.89;;;9.47;100.00
56070;BME280;41944;52.078;-0.058;2023-05-20T02:19:52;102551.98;;;9.63;100.00
56070;BME280;41944;52.078;-0.058;2023-05-20T02:22:19;102548.20;;;9.54;100.00
56070;BME280;41944;52.078;-0.058;2023-05-20T02:24:46;102546.67;;;9.50;100.00
56070;BME280;41944;52.078;-0.058;2023-05-20T02:27:14;102545.87;;;9.73;100.00
56070;BME280;41944;52.078;-0.058;2023-05-20T02:29:41;102545.34;;;9.61;100.00
56070;BME280;41944;52.078;-0.058;2023-05-20T02:32:09;102546.93;;;9.81;100.00
56070;BME280;41944;52.078;-0.058;2023-05-20T02:34:36;102547.24;;;9.89;100.00
56070;BME280;41944;52.078;-0.058;2023-05-20T02:37:03;102545.84;;;9.78;100.00
56070;BME280;41944;52.078;-0.058;2023-05-20T02:39:30;102547.50;;;10.04;100.00
56070;BME280;41944;52.078;-0.058;2023-05-20T02:41:57;102545.69;;;10.10;100.00
56070;BME280;41944;52.078;-0.058;2023-05-20T02:44:24;102548.79;;;10.21;100.00
56070;BME280;41944;52.078;-0.058;2023-05-20T02:46:51;102545.49;;;9.86;100.00
56070;BME280;41944;52.078;-0.058;2023-05-20T02:49:18;102544.43;;;9.94;100.00
56070;BME280;41944;52.078;-0.058;2023-05-20T02:51:45;102542.59;;;9.90;100.00
56070;BME280;41944;52.078;-0.058;2023-05-20T02:54:11;102544.71;;;10.05;100.00
56070;BME280;41944;52.078;-0.058;2023-05-20T02:56:38;102543.94;;;9.98;100.00
56070;BME280;41944;52.078;-0.058;2023-05-20T02:59:05;102548.72;;;10.28;100.00
56070;BME280;41944;52.078;-0.058;2023-05-20T03:01:32;102549.77;;;10.27;100.00
56070;BME280;41944;52.078;-0.058;2023-05-20T03:03:59;102548.80;;;10.16;100.00
56070;BME280;41944;52.078;-0.058;2023-05-20T03:06:26;102549.27;;;10.05;100.00
56070;BME280;41944;52.078;-0.058;2023-05-20T03:08:52;102544.65;;;10.14;100.00
56070;BME280;41944;52.078;-0.058;2023-05-20T03:11:20;102545.07;;;10.18;100.00
56070;BME280;41944;52.078;-0.058;2023-05-20T03:13:47;102540.44;;;10.27;100.00
56070;BME280;41944;52.078;-0.058;2023-05-20T03:16:14;102541.58;;;10.14;100.00
56070;BME280;41944;52.078;-0.058;2023-05-20T03:18:41;102532.15;;;10.36;100.00
56070;BME280;41944;52.078;-0.058;2023-05-20T03:21:08;102529.58;;;10.23;100.00
56070;BME280;41944;52.078;-0.058;2023-05-20T03:23:35;102527.33;;;10.29;100.00
56070;BME280;41944;52.078;-0.058;2023-05-20T03:26:02;102534.79;;;10.18;100.00
56070;BME280;41944;52.078;-0.058;2023-05-20T03:28:29;102532.25;;;9.93;100.00
56070;BME280;41944;52.078;-0.058;2023-05-20T03:30:55;102530.44;;;10.02;100.00
56070;BME280;41944;52.078;-0.058;2023-05-20T03:33:22;102526.35;;;9.98;100.00
56070;BME280;41944;52.078;-0.058;2023-05-20T03:35:49;102525.00;;;10.19;100.00
56070;BME280;41944;52.078;-0.058;2023-05-20T03:38:16;102523.46;;;10.22;100.00
56070;BME280;41944;52.078;-0.058;2023-05-20T03:40:43;102525.90;;;10.16;100.00
56070;BME280;41944;52.078;-0.058;2023-05-20T03:43:10;102524.44;;;10.15;100.00
56070;BME280;41944;52.078;-0.058;2023-05-20T03:45:36;102521.28;;;10.19;100.00
56070;BME280;41944;52.078;-0.058;2023-05-20T03:48:03;102518.07;;;10.15;100.00
56070;BME280;41944;52.078;-0.058;2023-05-20T03:50:31;102517.08;;;10.18;100.00
56070;BME280;41944;52.078;-0.058;2023-05-20T03:52:58;102516.14;;;10.17;100.00
56070;BME280;41944;52.078;-0.058;2023-05-20T03:55:25;102512.39;;;10.18;100.00
56070;BME280;41944;52.078;-0.058;2023-05-20T03:57:52;102516.91;;;10.12;100.00
56070;BME280;41944;52.078;-0.058;2023-05-20T04:00:18;102517.41;;;10.12;100.00
56070;BME280;41944;52.078;-0.058;2023-05-20T04:02:45;102520.67;;;10.00;100.00
56070;BME280;41944;52.078;-0.058;2023-05-20T04:05:12;102519.54;;;10.15;100.00
56070;BME280;41944;52.078;-0.058;2023-05-20T04:07:39;102523.00;;;10.04;100.00
56070;BME280;41944;52.078;-0.058;2023-05-20T04:10:07;102524.59;;;9.94;100.00
56070;BME280;41944;52.078;-0.058;2023-05-20T04:12:34;102522.91;;;9.90;100.00
56070;BME280;41944;52.078;-0.058;2023-05-20T04:15:01;102522.96;;;9.82;100.00
56070;BME280;41944;52.078;-0.058;2023-05-20T04:17:29;102524.95;;;9.99;100.00
56070;BME280;41944;52.078;-0.058;2023-05-20T04:19:56;102522.64;;;10.06;100.00
56070;BME280;41944;52.078;-0.058;2023-05-20T04:22:24;102524.86;;;9.82;100.00
56070;BME280;41944;52.078;-0.058;2023-05-20T04:24:51;102527.33;;;9.88;100.00
56070;BME280;41944;52.078;-0.058;2023-05-20T04:27:18;102524.84;;;9.92;100.00
56070;BME280;41944;52.078;-0.058;2023-05-20T04:29:45;102526.83;;;10.12;100.00
56070;BME280;41944;52.078;-0.058;2023-05-20T04:32:13;102519.99;;;10.27;100.00
56070;BME280;41944;52.078;-0.058;2023-05-20T04:34:40;102523.11;;;10.18;100.00
56070;BME280;41944;52.078;-0.058;2023-05-20T04:37:06;102518.87;;;10.33;100.00
56070;BME280;41944;52.078;-0.058;2023-05-20T04:39:33;102523.10;;;10.20;100.00
56070;BME280;41944;52.078;-0.058;2023-05-20T04:42:00;102520.44;;;10.25;100.00
56070;BME280;41944;52.078;-0.058;2023-05-20T04:44:27;102524.81;;;10.16;100.00
56070;BME280;41944;52.078;-0.058;2023-05-20T04:46:54;102522.36;;;10.32;100.00
56070;BME280;41944;52.078;-0.058;2023-05-20T04:49:21;102518.17;;;10.34;100.00
56070;BME280;41944;52.078;-0.058;2023-05-20T04:51:48;102523.29;;;10.08;100.00
56070;BME280;41944;52.078;-0.058;2023-05-20T04:54:15;102521.23;;;10.02;100.00
56070;BME280;41944;52.078;-0.058;2023-05-20T04:56:42;102522.77;;;10.16;100.00
56070;BME280;41944;52.078;-0.058;2023-05-20T04:59:09;102515.46;;;10.38;100.00
56070;BME280;41944;52.078;-0.058;2023-05-20T05:01:36;102513.19;;;10.36;100.00
56070;BME280;41944;52.078;-0.058;2023-05-20T05:04:04;102512.70;;;10.50;100.00
56070;BME280;41944;52.078;-0.058;2023-05-20T05:06:31;102514.90;;;10.48;100.00
56070;BME280;41944;52.078;-0.058;2023-05-20T05:08:58;102510.60;;;10.51;100.00
56070;BME280;41944;52.078;-0.058;2023-05-20T05:11:25;102513.68;;;10.59;100.00
56070;BME280;41944;52.078;-0.058;2023-05-20T05:13:54;102510.93;;;10.52;100.00
56070;BME280;41944;52.078;-0.058;2023-05-20T05:16:21;102511.54;;;10.71;100.00
56070;BME280;41944;52.078;-0.058;2023-05-20T05:18:48;102510.90;;;10.60;100.00
56070;BME280;41944;52.078;-0.058;2023-05-20T05:21:15;102506.12;;;10.73;100.00
56070;BME280;41944;52.078;-0.058;2023-05-20T05:23:43;102505.32;;;10.74;100.00
56070;BME280;41944;52.078;-0.058;2023-05-20T05:26:09;102509.02;;;10.72;100.00
56070;BME280;41944;52.078;-0.058;2023-05-20T05:28:36;102509.86;;;10.45;100.00
56070;BME280;41944;52.078;-0.058;2023-05-20T05:31:03;102506.76;;;10.81;100.00
56070;BME280;41944;52.078;-0.058;2023-05-20T05:33:30;102507.48;;;10.96;99.41
56070;BME280;41944;52.078;-0.058;2023-05-20T05:35:57;102511.31;;;11.14;97.91
56070;BME280;41944;52.078;-0.058;2023-05-20T05:38:24;102507.40;;;11.05;98.23
56070;BME280;41944;52.078;-0.058;2023-05-20T05:40:51;102509.91;;;10.73;100.00
56070;BME280;41944;52.078;-0.058;2023-05-20T05:43:18;102507.25;;;10.78;100.00
56070;BME280;41944;52.078;-0.058;2023-05-20T05:45:46;102506.43;;;10.99;100.00
56070;BME280;41944;52.078;-0.058;2023-05-20T05:48:12;102501.29;;;10.80;100.00
56070;BME280;41944;52.078;-0.058;2023-05-20T05:50:43;102500.66;;;10.92;100.00
56070;BME280;41944;52.078;-0.058;2023-05-20T05:53:10;102503.55;;;10.89;100.00
56070;BME280;41944;52.078;-0.058;2023-05-20T05:55:37;102508.06;;;11.12;100.00
56070;BME280;41944;52.078;-0.058;2023-05-20T05:58:04;102508.60;;;11.24;100.00
56070;BME280;41944;52.078;-0.058;2023-05-20T06:00:32;102511.17;;;11.27;100.00
56070;BME280;41944;52.078;-0.058;2023-05-20T06:02:59;102509.94;;;11.56;98.66
56070;BME280;41944;52.078;-0.058;2023-05-20T06:05:26;102508.12;;;11.54;98.25
56070;BME280;41944;52.078;-0.058;2023-05-20T06:07:53;102506.52;;;11.72;97.61
56070;BME280;41944;52.078;-0.058;2023-05-20T06:10:20;102508.08;;;11.63;98.02
56070;BME280;41944;52.078;-0.058;2023-05-20T06:12:47;102501.22;;;11.78;96.99
56070;BME280;41944;52.078;-0.058;2023-05-20T06:15:15;102496.17;;;11.76;96.88
56070;BME280;41944;52.078;-0.058;2023-05-20T06:17:42;102491.82;;;11.98;95.62
56070;BME280;41944;52.078;-0.058;2023-05-20T06:20:10;102489.92;;;11.93;96.33
56070;BME280;41944;52.078;-0.058;2023-05-20T06:22:38;102489.27;;;11.98;96.55
56070;BME280;41944;52.078;-0.058;2023-05-20T06:25:05;102489.47;;;12.24;94.33
56070;BME280;41944;52.078;-0.058;2023-05-20T06:27:32;102484.34;;;12.24;94.64
56070;BME280;41944;52.078;-0.058;2023-05-20T06:29:59;102486.08;;;12.43;94.55
56070;BME280;41944;52.078;-0.058;2023-05-20T06:32:27;102481.68;;;12.59;93.24
56070;BME280;41944;52.078;-0.058;2023-05-20T06:34:54;102481.28;;;12.65;92.56
56070;BME280;41944;52.078;-0.058;2023-05-20T06:37:21;102478.93;;;12.85;92.48
56070;BME280;41944;52.078;-0.058;2023-05-20T06:39:48;102480.76;;;12.93;91.56
56070;BME280;41944;52.078;-0.058;2023-05-20T06:42:15;102481.92;;;12.95;91.05
56070;BME280;41944;52.078;-0.058;2023-05-20T06:44:42;102479.22;;;13.00;89.34
56070;BME280;41944;52.078;-0.058;2023-05-20T06:47:09;102481.80;;;12.85;89.56
56070;BME280;41944;52.078;-0.058;2023-05-20T06:49:36;102481.15;;;13.11;88.94
56070;BME280;41944;52.078;-0.058;2023-05-20T06:52:03;102481.37;;;12.99;90.07
56070;BME280;41944;52.078;-0.058;2023-05-20T06:54:30;102478.91;;;13.05;90.59
56070;BME280;41944;52.078;-0.058;2023-05-20T06:56:57;102482.11;;;13.15;90.76
56070;BME280;41944;52.078;-0.058;2023-05-20T06:59:24;102477.89;;;13.09;89.19
56070;BME280;41944;52.078;-0.058;2023-05-20T07:01:51;102480.55;;;13.27;88.80
56070;BME280;41944;52.078;-0.058;2023-05-20T07:04:18;102479.89;;;13.41;88.38
56070;BME280;41944;52.078;-0.058;2023-05-20T07:06:45;102481.23;;;13.46;88.08
56070;BME280;41944;52.078;-0.058;2023-05-20T07:09:12;102481.13;;;13.26;89.21
56070;BME280;41944;52.078;-0.058;2023-05-20T07:11:40;102483.49;;;13.53;86.89
56070;BME280;41944;52.078;-0.058;2023-05-20T07:14:06;102471.77;;;13.50;87.55
56070;BME280;41944;52.078;-0.058;2023-05-20T07:16:33;102467.85;;;13.51;87.06
56070;BME280;41944;52.078;-0.058;2023-05-20T07:19:00;102461.91;;;13.50;87.39
56070;BME280;41944;52.078;-0.058;2023-05-20T07:21:27;102463.43;;;13.46;87.60
56070;BME280;41944;52.078;-0.058;2023-05-20T07:23:55;102466.14;;;13.34;88.81
56070;BME280;41944;52.078;-0.058;2023-05-20T07:26:22;102467.06;;;13.33;88.66
56070;BME280;41944;52.078;-0.058;2023-05-20T07:28:49;102467.58;;;13.28;89.01
56070;BME280;41944;52.078;-0.058;2023-05-20T07:31:16;102469.47;;;13.28;89.56
56070;BME280;41944;52.078;-0.058;2023-05-20T07:33:43;102467.11;;;13.28;90.29
56070;BME280;41944;52.078;-0.058;2023-05-20T07:36:10;102464.71;;;12.96;91.81
56070;BME280;41944;52.078;-0.058;2023-05-20T07:38:37;102465.47;;;13.18;91.80
56070;BME280;41944;52.078;-0.058;2023-05-20T07:41:04;102464.80;;;13.25;91.07
56070;BME280;41944;52.078;-0.058;2023-05-20T07:43:31;102460.87;;;13.53;89.92
56070;BME280;41944;52.078;-0.058;2023-05-20T07:45:59;102461.16;;;13.55;89.30
56070;BME280;41944;52.078;-0.058;2023-05-20T07:48:26;102460.30;;;13.85;89.15
56070;BME280;41944;52.078;-0.058;2023-05-20T07:50:53;102453.07;;;14.10;87.52
56070;BME280;41944;52.078;-0.058;2023-05-20T07:53:19;102449.97;;;14.14;87.06
56070;BME280;41944;52.078;-0.058;2023-05-20T07:55:46;102448.96;;;14.36;84.84
56070;BME280;41944;52.078;-0.058;2023-05-20T07:58:13;102439.92;;;14.48;83.67
56070;BME280;41944;52.078;-0.058;2023-05-20T08:00:40;102438.55;;;14.61;81.24
56070;BME280;41944;52.078;-0.058;2023-05-20T08:03:07;102436.18;;;14.46;80.99
56070;BME280;41944;52.078;-0.058;2023-05-20T08:05:36;102435.74;;;14.65;81.94
56070;BME280;41944;52.078;-0.058;2023-05-20T08:08:03;102434.14;;;14.51;80.60
56070;BME280;41944;52.078;-0.058;2023-05-20T08:10:31;102437.47;;;14.76;79.39
56070;BME280;41944;52.078;-0.058;2023-05-20T08:12:58;102438.55;;;14.88;78.84
56070;BME280;41944;52.078;-0.058;2023-05-20T08:15:25;102432.75;;;14.78;78.30
56070;BME280;41944;52.078;-0.058;2023-05-20T08:17:52;102431.52;;;15.16;79.21
56070;BME280;41944;52.078;-0.058;2023-05-20T08:20:19;102432.16;;;15.15;77.73
56070;BME280;41944;52.078;-0.058;2023-05-20T08:22:46;102428.41;;;15.26;76.76
56070;BME280;41944;52.078;-0.058;2023-05-20T08:25:14;102436.30;;;15.42;76.32
56070;BME280;41944;52.078;-0.058;2023-05-20T08:27:40;102428.67;;;15.30;76.06
56070;BME280;41944;52.078;-0.058;2023-05-20T08:30:08;102426.12;;;15.39;75.56
56070;BME280;41944;52.078;-0.058;2023-05-20T08:32:35;102425.49;;;15.65;75.79
56070;BME280;41944;52.078;-0.058;2023-05-20T08:35:02;102422.80;;;15.88;73.52
56070;BME280;41944;52.078;-0.058;2023-05-20T08:37:29;102423.22;;;15.88;71.85
56070;BME280;41944;52.078;-0.058;2023-05-20T08:39:56;102424.80;;;15.94;70.74
56070;BME280;41944;52.078;-0.058;2023-05-20T08:42:23;102426.42;;;15.71;70.21
56070;BME280;41944;52.078;-0.058;2023-05-20T08:44:51;102415.00;;;15.85;69.93
56070;BME280;41944;52.078;-0.058;2023-05-20T08:47:19;102420.63;;;15.69;68.76
56070;BME280;41944;52.078;-0.058;2023-05-20T08:49:47;102417.56;;;15.96;67.81
56070;BME280;41944;52.078;-0.058;2023-05-20T08:52:16;102416.30;;;16.14;67.76
56070;BME280;41944;52.078;-0.058;2023-05-20T08:54:45;102411.82;;;16.17;67.42
56070;BME280;41944;52.078;-0.058;2023-05-20T08:57:14;102408.01;;;16.07;67.18
56070;BME280;41944;52.078;-0.058;2023-05-20T08:59:42;102403.57;;;16.08;66.63
56070;BME280;41944;52.078;-0.058;2023-05-20T09:02:09;102401.99;;;16.20;67.58
56070;BME280;41944;52.078;-0.058;2023-05-20T09:04:37;102401.12;;;16.49;67.37
56070;BME280;41944;52.078;-0.058;2023-05-20T09:07:04;102401.53;;;16.63;66.51
56070;BME280;41944;52.078;-0.058;2023-05-20T09:09:33;102400.03;;;16.70;64.65
56070;BME280;41944;52.078;-0.058;2023-05-20T09:12:01;102392.31;;;16.86;65.23
56070;BME280;41944;52.078;-0.058;2023-05-20T09:14:28;102394.70;;;17.15;65.89
56070;BME280;41944;52.078;-0.058;2023-05-20T09:16:56;102390.50;;;16.88;63.49
56070;BME280;41944;52.078;-0.058;2023-05-20T09:19:23;102387.40;;;16.91;63.69
56070;BME280;41944;52.078;-0.058;2023-05-20T09:21:51;102386.40;;;16.66;63.18
56070;BME280;41944;52.078;-0.058;2023-05-20T09:24:21;102389.30;;;16.98;63.05
56070;BME280;41944;52.078;-0.058;2023-05-20T09:26:48;102386.05;;;17.03;62.22
56070;BME280;41944;52.078;-0.058;2023-05-20T09:29:15;102381.99;;;17.26;60.51
56070;BME280;41944;52.078;-0.058;2023-05-20T09:31:43;102380.09;;;17.49;58.90
56070;BME280;41944;52.078;-0.058;2023-05-20T09:34:09;102375.85;;;17.69;60.24
56070;BME280;41944;52.078;-0.058;2023-05-20T09:36:38;102383.31;;;17.70;57.53
56070;BME280;41944;52.078;-0.058;2023-05-20T09:39:08;102381.78;;;17.38;58.51
56070;BME280;41944;52.078;-0.058;2023-05-20T09:41:42;102381.93;;;17.55;58.90
56070;BME280;41944;52.078;-0.058;2023-05-20T09:44:12;102378.76;;;17.67;57.32
56070;BME280;41944;52.078;-0.058;2023-05-20T09:46:40;102375.89;;;17.81;58.01
56070;BME280;41944;52.078;-0.058;2023-05-20T09:49:07;102381.60;;;17.75;56.41
56070;BME280;41944;52.078;-0.058;2023-05-20T09:51:35;102375.62;;;17.61;56.69
56070;BME280;41944;52.078;-0.058;2023-05-20T09:54:03;102370.55;;;17.71;57.60
56070;BME280;41944;52.078;-0.058;2023-05-20T09:56:32;102367.79;;;17.88;58.26
56070;BME280;41944;52.078;-0.058;2023-05-20T09:59:01;102374.14;;;17.88;56.41
56070;BME280;41944;52.078;-0.058;2023-05-20T10:01:30;102364.53;;;17.87;56.53
56070;BME280;41944;52.078;-0.058;2023-05-20T10:03:58;102366.07;;;18.09;58.04
56070;BME280;41944;52.078;-0.058;2023-05-20T10:06:39;102371.66;;;18.02;58.41
56070;BME280;41944;52.078;-0.058;2023-05-20T10:09:20;102357.63;;;18.24;58.18
56070;BME280;41944;52.078;-0.058;2023-05-20T10:11:57;102353.28;;;18.01;56.30
56070;BME280;41944;52.078;-0.058;2023-05-20T10:14:37;102350.84;;;18.08;56.53
56070;BME280;41944;52.078;-0.058;2023-05-20T10:17:09;102344.02;;;18.34;56.66
56070;BME280;41944;52.078;-0.058;2023-05-20T10:19:38;102349.13;;;18.38;55.60
56070;BME280;41944;52.078;-0.058;2023-05-20T10:22:07;102356.65;;;18.38;54.74
56070;BME280;41944;52.078;-0.058;2023-05-20T10:24:35;102356.49;;;18.54;54.45
56070;BME280;41944;52.078;-0.058;2023-05-20T10:27:06;102346.83;;;18.44;54.03
56070;BME280;41944;52.078;-0.058;2023-05-20T10:29:42;102346.60;;;18.56;55.47
56070;BME280;41944;52.078;-0.058;2023-05-20T10:32:10;102344.24;;;18.58;54.23
56070;BME280;41944;52.078;-0.058;2023-05-20T10:34:45;102337.14;;;18.54;53.26
56070;BME280;41944;52.078;-0.058;2023-05-20T10:37:22;102334.68;;;18.70;54.94
56070;BME280;41944;52.078;-0.058;2023-05-20T10:39:50;102335.78;;;18.66;53.20
56070;BME280;41944;52.078;-0.058;2023-05-20T10:42:27;102338.25;;;18.58;52.14
56070;BME280;41944;52.078;-0.058;2023-05-20T10:44:54;102337.14;;;18.78;53.52
56070;BME280;41944;52.078;-0.058;2023-05-20T10:47:21;102333.39;;;18.80;54.23
56070;BME280;41944;52.078;-0.058;2023-05-20T10:49:48;102334.98;;;19.04;54.96
56070;BME280;41944;52.078;-0.058;2023-05-20T10:52:16;102335.01;;;19.18;52.36
56070;BME280;41944;52.078;-0.058;2023-05-20T10:54:44;102320.91;;;19.24;51.51
56070;BME280;41944;52.078;-0.058;2023-05-20T10:57:12;102321.22;;;19.40;53.39
56070;BME280;41944;52.078;-0.058;2023-05-20T10:59:40;102314.28;;;19.36;52.54
56070;BME280;41944;52.078;-0.058;2023-05-20T11:02:09;102320.79;;;19.39;52.36
56070;BME280;41944;52.078;-0.058;2023-05-20T11:04:37;102321.00;;;19.61;51.76
56070;BME280;41944;52.078;-0.058;2023-05-20T11:07:04;102315.85;;;19.42;51.46
56070;BME280;41944;52.078;-0.058;2023-05-20T11:09:31;102311.82;;;19.54;51.03
56070;BME280;41944;52.078;-0.058;2023-05-20T11:11:58;102314.62;;;19.23;51.88
56070;BME280;41944;52.078;-0.058;2023-05-20T11:14:27;102317.38;;;19.45;51.02
56070;BME280;41944;52.078;-0.058;2023-05-20T11:16:56;102309.76;;;19.50;51.06
56070;BME280;41944;52.078;-0.058;2023-05-20T11:19:24;102315.49;;;19.72;51.00
56070;BME280;41944;52.078;-0.058;2023-05-20T11:21:51;102305.77;;;19.68;51.23
56070;BME280;41944;52.078;-0.058;2023-05-20T11:24:24;102302.87;;;19.87;50.64
56070;BME280;41944;52.078;-0.058;2023-05-20T11:26:51;102302.66;;;19.98;50.76
56070;BME280;41944;52.078;-0.058;2023-05-20T11:29:18;102304.75;;;19.91;50.14
56070;BME280;41944;52.078;-0.058;2023-05-20T11:31:48;102298.29;;;19.91;50.16
56070;BME280;41944;52.078;-0.058;2023-05-20T11:34:18;102298.76;;;19.83;49.76
56070;BME280;41944;52.078;-0.058;2023-05-20T11:36:46;102292.94;;;20.00;51.98
56070;BME280;41944;52.078;-0.058;2023-05-20T11:39:13;102293.31;;;20.02;50.69
56070;BME280;41944;52.078;-0.058;2023-05-20T11:41:41;102288.79;;;19.95;51.14
56070;BME280;41944;52.078;-0.058;2023-05-20T11:44:09;102287.35;;;19.77;51.10
56070;BME280;41944;52.078;-0.058;2023-05-20T11:46:40;102287.65;;;19.84;51.36
56070;BME280;41944;52.078;-0.058;2023-05-20T11:49:08;102280.67;;;19.90;50.75
56070;BME280;41944;52.078;-0.058;2023-05-20T11:51:37;102281.40;;;19.70;50.86
56070;BME280;41944;52.078;-0.058;2023-05-20T11:54:05;102278.76;;;19.70;51.57
56070;BME280;41944;52.078;-0.058;2023-05-20T11:56:34;102276.41;;;20.08;49.52
56070;BME280;41944;52.078;-0.058;2023-05-20T11:59:01;102271.18;;;20.12;50.80
56070;BME280;41944;52.078;-0.058;2023-05-20T12:01:30;102280.94;;;20.40;50.14
56070;BME280;41944;52.078;-0.058;2023-05-20T12:03:57;102270.91;;;20.39;48.10
56070;BME280;41944;52.078;-0.058;2023-05-20T12:06:24;102268.95;;;20.54;49.10
56070;BME280;41944;52.078;-0.058;2023-05-20T12:08:51;102274.14;;;20.50;49.58
56070;BME280;41944;52.078;-0.058;2023-05-20T12:11:17;102266.00;;;20.34;48.96
56070;BME280;41944;52.078;-0.058;2023-05-20T12:13:44;102265.27;;;20.30;49.77
56070;BME280;41944;52.078;-0.058;2023-05-20T12:16:11;102262.84;;;20.30;49.00
56070;BME280;41944;52.078;-0.058;2023-05-20T12:18:38;102258.78;;;20.66;48.58
56070;BME280;41944;52.078;-0.058;2023-05-20T12:21:05;102254.82;;;20.59;47.81
56070;BME280;41944;52.078;-0.058;2023-05-20T12:23:32;102254.88;;;20.15;49.00
56070;BME280;41944;52.078;-0.058;2023-05-20T12:25:59;102257.05;;;20.36;49.92
56070;BME280;41944;52.078;-0.058;2023-05-20T12:28:25;102255.38;;;20.52;50.31
56070;BME280;41944;52.078;-0.058;2023-05-20T12:30:52;102255.40;;;20.62;48.30
56070;BME280;41944;52.078;-0.058;2023-05-20T12:33:19;102244.52;;;20.69;47.29
56070;BME280;41944;52.078;-0.058;2023-05-20T12:35:47;102241.25;;;20.89;45.72
56070;BME280;41944;52.078;-0.058;2023-05-20T12:38:14;102246.10;;;21.07;46.45
56070;BME280;41944;52.078;-0.058;2023-05-20T12:40:41;102234.83;;;21.20;47.98